Time;durP1;ratioP1;P1;durP2;ratioP2;P2;SDS_P1;SDS_P2;PMS_P1;PMS_P2;Temp;Humidity;BMP_temperature;BMP_pressure;BME280_temperature;BME280_humidity;BME280_pressure;Samples;Min_cycle;Max_cycle;Signal;HPM_P1;HPM_P2
2021/12/28 00:00:11;;;;;;;22.45;10.68;;;;;;;0.58;56.17;99693.25;4976986;28;20129;-80
2021/12/28 00:02:43;;;;;;;20.42;11.27;;;;;;;0.71;55.35;99687.91;4991651;28;20050;-81
2021/12/28 00:05:09;;;;;;;23.45;12.57;;;;;;;0.41;56.29;99692.69;4992225;28;20498;-80
2021/12/28 00:07:36;;;;;;;25.80;11.18;;;;;;;0.53;56.06;99687.34;4971183;28;20093;-80
2021/12/28 00:10:04;;;;;;;23.02;12.23;;;;;;;0.59;56.12;99683.81;4973787;28;20044;-80
2021/12/28 00:12:32;;;;;;;27.65;11.98;;;;;;;0.61;55.78;99672.63;4984433;28;20049;-81
2021/12/28 00:15:35;;;;;;;23.00;11.63;;;;;;;0.69;55.39;99664.78;4974713;28;20026;-80
2021/12/28 00:17:59;;;;;;;14.63;8.07;;;;;;;0.46;56.29;99672.91;4986391;28;20054;-80
2021/12/28 00:20:34;;;;;;;21.25;10.77;;;;;;;0.65;55.89;99670.84;5003413;28;20038;-80
2021/12/28 00:23:01;;;;;;;21.20;10.15;;;;;;;0.51;56.04;99676.25;4977370;28;20038;-80
2021/12/28 00:25:27;;;;;;;27.45;12.70;;;;;;;0.44;56.74;99669.50;4992755;28;20030;-80
2021/12/28 00:27:53;;;;;;;25.17;11.25;;;;;;;0.44;56.60;99664.38;4993145;28;20112;-81
2021/12/28 00:30:20;;;;;;;21.90;10.85;;;;;;;0.39;57.10;99666.16;4979914;28;20271;-80
2021/12/28 00:32:52;;;;;;;24.20;12.57;;;;;;;0.36;57.24;99655.94;4995518;28;20042;-81
2021/12/28 00:35:28;;;;;;;22.60;10.80;;;;;;;0.16;58.33;99666.53;4995802;28;20089;-80
2021/12/28 00:37:54;;;;;;;28.23;11.65;;;;;;;0.47;57.15;99659.16;4973708;28;20081;-81
2021/12/28 00:40:20;;;;;;;25.80;12.48;;;;;;;0.47;57.31;99659.16;4991167;28;20066;-81
2021/12/28 00:42:46;;;;;;;25.15;12.30;;;;;;;0.73;56.63;99643.25;4976037;28;20038;-80
2021/12/28 00:45:13;;;;;;;22.35;12.25;;;;;;;0.47;57.59;99646.31;4996151;28;20589;-80
2021/12/28 00:47:39;;;;;;;25.27;12.00;;;;;;;0.65;56.89;99643.38;4996531;28;20398;-81
2021/12/28 00:50:06;;;;;;;24.45;12.13;;;;;;;0.55;57.72;99639.31;4976531;28;20049;-81
2021/12/28 00:52:32;;;;;;;20.90;11.23;;;;;;;0.32;58.19;99636.28;4949592;28;20342;-81
2021/12/28 00:54:57;;;;;;;22.13;11.25;;;;;;;0.31;58.09;99642.31;4969578;28;20096;-81
2021/12/28 00:57:23;;;;;;;19.45;11.05;;;;;;;0.49;57.53;99642.00;4978707;28;20042;-80
2021/12/28 00:59:48;;;;;;;21.30;10.82;;;;;;;0.41;58.08;99643.84;4996180;28;20037;-81
2021/12/28 01:02:14;;;;;;;22.58;10.82;;;;;;;0.42;57.90;99640.41;4994306;28;20813;-80
2021/12/28 01:04:40;;;;;;;22.67;11.93;;;;;;;0.20;58.06;99645.06;4993038;28;20065;-80
2021/12/28 01:07:05;;;;;;;21.02;10.68;;;;;;;0.13;58.44;99641.75;4977218;28;20117;-80
2021/12/28 01:09:31;;;;;;;19.48;10.88;;;;;;;0.46;57.72;99652.34;4979748;28;20033;-80
2021/12/28 01:12:00;;;;;;;23.38;12.00;;;;;;;0.58;57.93;99644.38;4991583;28;20046;-80
2021/12/28 01:14:26;;;;;;;19.50;9.88;;;;;;;0.51;57.81;99645.38;4991930;28;20104;-80
2021/12/28 01:16:52;;;;;;;23.90;10.82;;;;;;;0.58;57.61;99646.97;5012770;28;20401;-80
2021/12/28 01:19:18;;;;;;;24.40;11.65;;;;;;;0.71;57.34;99646.75;4995057;28;20034;-81
2021/12/28 01:21:43;;;;;;;22.77;10.95;;;;;;;0.77;57.28;99639.75;4992941;28;20053;-80
2021/12/28 01:24:09;;;;;;;23.80;11.50;;;;;;;0.61;57.67;99631.50;4991947;28;20033;-80
2021/12/28 01:26:35;;;;;;;22.02;10.82;;;;;;;0.79;56.84;99644.84;4993629;28;20469;-80
2021/12/28 01:29:00;;;;;;;21.35;10.60;;;;;;;0.76;57.34;99634.63;4990929;28;20042;-80
2021/12/28 01:31:26;;;;;;;21.38;11.70;;;;;;;0.62;57.75;99643.47;4985504;28;20546;-80
2021/12/28 01:33:51;;;;;;;27.20;14.50;;;;;;;0.63;57.95;99640.00;4953066;28;20038;-81
2021/12/28 01:36:17;;;;;;;23.10;11.50;;;;;;;0.80;57.28;99633.72;4997961;28;20051;-80
2021/12/28 01:38:43;;;;;;;21.45;10.57;;;;;;;0.49;58.27;99649.69;4992127;28;20042;-80
2021/12/28 01:41:10;;;;;;;18.85;10.50;;;;;;;0.75;57.38;99635.50;4993795;28;20123;-80
2021/12/28 01:43:40;;;;;;;21.40;11.35;;;;;;;0.42;58.44;99640.41;4992542;28;20042;-80
2021/12/28 01:46:07;;;;;;;16.50;10.07;;;;;;;0.73;57.29;99624.41;4986813;28;20594;-79
2021/12/28 01:48:37;;;;;;;20.63;11.27;;;;;;;0.90;56.87;99627.50;4984709;28;20069;-80
2021/12/28 01:51:07;;;;;;;22.25;10.18;;;;;;;0.69;57.68;99634.75;4990998;28;20054;-80
2021/12/28 01:53:34;;;;;;;19.90;10.32;;;;;;;0.80;57.58;99638.84;4972170;28;20039;-81
2021/12/28 01:56:04;;;;;;;18.55;11.93;;;;;;;0.74;57.67;99628.69;4987835;28;20038;-79
2021/12/28 01:58:30;;;;;;;22.30;12.32;;;;;;;0.81;57.86;99627.66;4967432;28;20081;-80
2021/12/28 02:00:56;;;;;;;27.15;10.60;;;;;;;0.96;57.23;99616.25;4976748;28;20042;-80
2021/12/28 02:03:27;;;;;;;21.15;10.63;;;;;;;0.81;57.85;99619.97;4969117;28;20084;-80
2021/12/28 02:05:53;;;;;;;18.80;10.57;;;;;;;0.99;57.17;99611.03;4983559;28;20464;-79
2021/12/28 02:08:19;;;;;;;22.75;10.00;;;;;;;1.10;56.53;99615.09;4976116;28;20050;-81
2021/12/28 02:10:47;;;;;;;21.52;11.00;;;;;;;0.81;57.73;99614.81;4994868;28;20106;-81
2021/12/28 02:13:13;;;;;;;27.30;10.02;;;;;;;0.81;57.85;99607.09;4983778;28;20030;-80
2021/12/28 02:15:38;;;;;;;18.63;10.77;;;;;;;0.78;58.03;99609.75;4989994;28;20309;-81
2021/12/28 02:18:06;;;;;;;17.50;10.40;;;;;;;0.68;58.27;99604.78;4955695;28;20053;-79
2021/12/28 02:20:33;;;;;;;20.27;10.75;;;;;;;0.75;58.26;99605.50;4970434;28;20106;-78
2021/12/28 02:22:58;;;;;;;24.88;11.05;;;;;;;0.68;58.56;99598.78;4988486;28;20170;-79
2021/12/28 02:25:24;;;;;;;24.23;12.30;;;;;;;0.81;58.49;99600.22;4967432;28;20031;-78
2021/12/28 02:27:49;;;;;;;22.20;10.55;;;;;;;0.64;58.86;99595.44;4993887;28;20089;-79
2021/12/28 02:30:19;;;;;;;26.58;12.30;;;;;;;0.76;58.32;99589.19;4988698;28;20038;-78
2021/12/28 02:32:46;;;;;;;21.98;11.98;;;;;;;0.99;57.84;99588.72;4983596;28;20046;-78
2021/12/28 02:35:16;;;;;;;20.17;10.88;;;;;;;1.00;57.85;99587.84;4985675;28;20121;-78
2021/12/28 02:37:42;;;;;;;18.98;10.70;;;;;;;0.91;58.09;99582.88;4966573;28;20116;-78
2021/12/28 02:40:12;;;;;;;25.42;11.55;;;;;;;0.86;58.33;99582.16;4987619;28;20039;-77
2021/12/28 02:42:37;;;;;;;23.90;10.50;;;;;;;0.81;58.93;99571.09;4986764;28;20041;-78
2021/12/28 02:45:12;;;;;;;23.05;13.07;;;;;;;0.97;57.99;99574.19;4997480;28;20038;-78
2021/12/28 02:47:40;;;;;;;21.42;11.40;;;;;;;0.93;58.74;99570.84;4974520;28;20493;-80
2021/12/28 02:50:13;;;;;;;22.42;11.77;;;;;;;0.89;58.54;99567.47;4999634;28;20340;-79
2021/12/28 02:52:38;;;;;;;24.02;11.95;;;;;;;0.61;59.95;99564.63;4995269;28;20050;-78
2021/12/28 02:55:07;;;;;;;22.35;11.35;;;;;;;0.79;59.22;99572.84;4989098;28;20037;-77
2021/12/28 02:57:34;;;;;;;25.27;11.18;;;;;;;1.03;58.56;99561.19;4984534;28;20034;-79
2021/12/28 03:00:00;;;;;;;24.30;10.85;;;;;;;0.95;58.72;99561.38;4987847;28;20049;-79
2021/12/28 03:02:25;;;;;;;21.58;12.18;;;;;;;0.89;58.99;99559.75;4985947;28;20517;-79
2021/12/28 03:04:51;;;;;;;24.35;12.35;;;;;;;1.05;58.43;99555.13;4994065;28;20141;-80
2021/12/28 03:07:16;;;;;;;25.25;11.73;;;;;;;0.98;58.75;99556.16;5001918;28;20046;-79
2021/12/28 03:09:42;;;;;;;26.88;12.60;;;;;;;1.06;58.72;99562.00;4984467;28;20065;-80
2021/12/28 03:12:09;;;;;;;21.33;11.45;;;;;;;1.05;58.38;99555.13;4979021;28;20106;-79
2021/12/28 03:14:35;;;;;;;20.05;10.43;;;;;;;0.96;58.92;99544.19;4985830;28;20030;-80
2021/12/28 03:17:01;;;;;;;23.48;11.85;;;;;;;1.06;58.53;99546.53;4978039;28;20490;-78
2021/12/28 03:19:26;;;;;;;23.85;12.18;;;;;;;1.18;58.27;99544.56;4985959;28;20060;-80
2021/12/28 03:21:52;;;;;;;24.75;12.55;;;;;;;1.25;58.02;99551.28;4984433;28;20042;-78
2021/12/28 03:24:18;;;;;;;21.75;10.40;;;;;;;1.40;57.47;99535.50;4984874;28;20045;-80
2021/12/28 03:26:44;;;;;;;23.95;12.23;;;;;;;0.88;59.28;99534.06;4976397;28;20122;-78
2021/12/28 03:29:10;;;;;;;22.50;11.93;;;;;;;1.07;58.61;99527.63;4987300;28;20545;-78
2021/12/28 03:31:36;;;;;;;20.92;10.60;;;;;;;1.13;58.70;99531.81;4968749;28;20121;-79
2021/12/28 03:34:01;;;;;;;21.85;12.85;;;;;;;1.11;58.61;99529.25;4987860;28;20038;-79
2021/12/28 03:36:28;;;;;;;21.80;11.95;;;;;;;1.12;58.69;99524.97;4985246;28;20030;-78
2021/12/28 03:38:56;;;;;;;20.67;11.77;;;;;;;1.10;58.80;99524.16;4982799;28;20345;-78
2021/12/28 03:41:26;;;;;;;20.60;10.88;;;;;;;1.28;58.15;99535.75;4985098;28;20034;-78
2021/12/28 03:43:54;;;;;;;22.58;11.55;;;;;;;1.02;59.13;99519.19;4989450;28;20121;-80
2021/12/28 03:46:24;;;;;;;23.73;12.07;;;;;;;1.03;59.11;99523.44;4993896;28;20326;-80
2021/12/28 03:48:50;;;;;;;21.92;11.90;;;;;;;1.06;59.04;99515.66;4986176;28;20407;-78
2021/12/28 03:51:16;;;;;;;21.58;11.55;;;;;;;1.31;58.25;99509.97;4987687;28;20054;-78
2021/12/28 03:53:43;;;;;;;20.77;10.98;;;;;;;0.92;59.41;99506.53;4975403;28;20522;-77
2021/12/28 03:56:09;;;;;;;25.77;11.88;;;;;;;1.13;58.95;99511.22;4974834;28;20034;-78
2021/12/28 03:58:38;;;;;;;24.70;12.57;;;;;;;1.19;58.75;99507.66;5000532;28;20061;-79
2021/12/28 04:01:04;;;;;;;21.42;11.77;;;;;;;1.10;58.96;99508.72;4992861;28;20100;-79
2021/12/28 04:03:30;;;;;;;25.52;12.10;;;;;;;1.17;58.91;99504.25;4987441;28;20490;-79
2021/12/28 04:05:56;;;;;;;21.65;12.25;;;;;;;1.15;58.75;99508.59;4986970;28;20141;-78
2021/12/28 04:08:23;;;;;;;26.60;12.13;;;;;;;1.24;58.45;99509.25;4989736;28;20105;-79
2021/12/28 04:10:54;;;;;;;24.77;11.85;;;;;;;1.25;58.93;99507.50;4987882;28;20322;-80
2021/12/28 04:13:21;;;;;;;26.83;11.65;;;;;;;1.13;59.12;99505.22;4988454;28;20419;-78
2021/12/28 04:15:47;;;;;;;26.48;12.73;;;;;;;1.04;59.71;99504.56;4996205;28;20488;-80
2021/12/28 04:18:15;;;;;;;28.77;12.52;;;;;;;0.94;59.84;99497.91;4991830;28;20034;-80
2021/12/28 04:20:40;;;;;;;24.67;13.00;;;;;;;1.09;59.73;99489.84;4986175;28;20499;-79
2021/12/28 04:23:06;;;;;;;25.70;12.27;;;;;;;1.31;58.99;99487.63;4993437;28;20046;-79
2021/12/28 04:25:33;;;;;;;26.45;12.90;;;;;;;1.23;58.98;99498.97;4988627;28;20057;-80
2021/12/28 04:27:59;;;;;;;25.15;13.65;;;;;;;1.34;58.66;99498.72;4979835;28;20034;-78
2021/12/28 04:30:25;;;;;;;27.42;12.25;;;;;;;1.32;58.67;99501.34;4980757;28;20038;-79
2021/12/28 04:32:50;;;;;;;28.35;11.32;;;;;;;1.21;58.96;99498.16;4994066;28;20805;-79
2021/12/28 04:35:16;;;;;;;25.98;13.02;;;;;;;1.15;59.20;99494.03;4991667;28;20038;-79
2021/12/28 04:37:42;;;;;;;24.30;11.43;;;;;;;1.20;59.06;99496.50;4987939;28;20043;-79
2021/12/28 04:40:10;;;;;;;27.88;13.75;;;;;;;1.32;58.79;99496.19;4988837;28;20568;-79
2021/12/28 04:42:38;;;;;;;22.65;12.50;;;;;;;1.38;58.53;99498.63;4986587;28;20034;-79
2021/12/28 04:45:06;;;;;;;26.63;13.27;;;;;;;1.51;58.27;99502.63;4976536;28;20331;-79
2021/12/28 04:47:32;;;;;;;34.92;12.88;;;;;;;1.47;58.11;99503.56;4975865;28;20077;-79
2021/12/28 04:49:59;;;;;;;26.17;12.52;;;;;;;1.44;58.44;99505.38;4994763;28;20568;-78
2021/12/28 04:52:25;;;;;;;30.77;13.13;;;;;;;1.32;58.86;99498.75;4992122;28;20038;-79
2021/12/28 04:54:50;;;;;;;26.38;12.38;;;;;;;1.39;58.93;99497.72;4992775;28;21237;-78
2021/12/28 04:57:16;;;;;;;23.98;13.10;;;;;;;1.37;58.46;99491.75;4977100;28;20060;-79
2021/12/28 04:59:42;;;;;;;27.77;12.90;;;;;;;1.50;58.43;99497.50;4992082;28;20516;-79
2021/12/28 05:02:07;;;;;;;25.67;12.45;;;;;;;1.50;58.20;99503.50;4990812;28;20038;-80
2021/12/28 05:04:33;;;;;;;30.58;12.82;;;;;;;1.72;57.38;99500.41;4972071;28;20512;-78
2021/12/28 05:06:59;;;;;;;23.38;10.95;;;;;;;1.69;57.31;99492.75;4983455;28;20049;-78
2021/12/28 05:09:24;;;;;;;23.88;11.93;;;;;;;1.38;58.94;99502.94;4971406;28;20044;-78
2021/12/28 05:11:50;;;;;;;33.08;13.43;;;;;;;1.55;58.14;99497.38;4988783;28;20033;-77
2021/12/28 05:14:17;;;;;;;25.90;13.10;;;;;;;1.61;58.07;99503.22;4992282;28;20281;-78
2021/12/28 05:16:43;;;;;;;23.63;11.90;;;;;;;1.67;58.07;99491.94;4990317;28;20118;-79
2021/12/28 05:19:09;;;;;;;23.40;13.10;;;;;;;1.75;57.83;99489.16;4976680;28;20099;-80
2021/12/28 05:21:36;;;;;;;23.98;12.48;;;;;;;1.68;57.87;99479.00;4973948;28;20244;-79
2021/12/28 05:24:02;;;;;;;29.40;13.25;;;;;;;1.78;57.73;99473.66;4973713;28;20039;-79
2021/12/28 05:26:28;;;;;;;28.85;12.35;;;;;;;1.59;58.40;99473.25;4987389;28;20034;-79
2021/12/28 05:28:54;;;;;;;28.92;12.60;;;;;;;1.74;57.83;99470.28;4976886;28;20049;-79
2021/12/28 05:31:19;;;;;;;27.45;12.90;;;;;;;1.79;57.82;99475.31;5004032;28;20028;-80
2021/12/28 05:33:45;;;;;;;28.08;15.05;;;;;;;1.82;57.87;99470.94;4990699;28;20035;-79
2021/12/28 05:36:11;;;;;;;23.42;12.57;;;;;;;1.78;58.13;99479.63;5006976;28;20022;-79
2021/12/28 05:38:37;;;;;;;33.92;13.02;;;;;;;1.82;58.14;99470.94;4990556;28;20030;-79
2021/12/28 05:41:04;;;;;;;26.17;12.48;;;;;;;1.93;57.63;99468.94;5005872;28;20149;-79
2021/12/28 05:43:30;;;;;;;23.58;11.43;;;;;;;2.00;57.63;99464.47;4998735;28;20090;-80
2021/12/28 05:45:56;;;;;;;22.33;12.15;;;;;;;1.98;57.71;99462.81;4982537;28;20038;-78
2021/12/28 05:48:21;;;;;;;27.15;12.98;;;;;;;2.07;57.66;99454.81;4989599;28;20250;-79
2021/12/28 05:50:47;;;;;;;28.42;13.30;;;;;;;2.07;57.46;99457.41;4991231;28;20034;-80
2021/12/28 05:53:13;;;;;;;29.02;13.95;;;;;;;1.83;58.18;99459.75;4990545;28;20050;-79
2021/12/28 05:55:38;;;;;;;25.42;13.98;;;;;;;1.84;58.36;99442.53;4988697;28;20034;-78
2021/12/28 05:58:04;;;;;;;36.78;12.95;;;;;;;1.79;58.51;99439.25;4981127;28;20042;-79
2021/12/28 06:00:30;;;;;;;22.48;12.85;;;;;;;1.71;58.55;99436.91;4974967;28;20117;-79
2021/12/28 06:02:56;;;;;;;28.80;14.30;;;;;;;1.82;58.33;99434.88;4988119;28;20042;-79
2021/12/28 06:05:23;;;;;;;28.83;13.57;;;;;;;1.68;59.17;99442.94;4986906;28;20030;-78
2021/12/28 06:07:48;;;;;;;27.75;14.05;;;;;;;1.79;58.79;99427.22;5001462;28;20042;-79
2021/12/28 06:10:14;;;;;;;25.17;12.48;;;;;;;1.72;59.10;99420.53;4976024;28;20045;-79
2021/12/28 06:12:40;;;;;;;28.98;14.90;;;;;;;1.70;58.96;99423.16;4987850;28;20113;-78
2021/12/28 06:15:07;;;;;;;28.92;13.00;;;;;;;1.84;58.61;99414.22;4989351;28;20038;-78
2021/12/28 06:17:32;;;;;;;27.42;13.45;;;;;;;1.62;59.50;99413.97;4977913;28;20054;-78
2021/12/28 06:19:58;;;;;;;23.77;13.25;;;;;;;1.79;58.51;99414.34;4985407;28;20038;-78
2021/12/28 06:22:24;;;;;;;28.70;13.68;;;;;;;1.56;59.21;99407.22;4986155;28;20125;-78
2021/12/28 06:24:50;;;;;;;30.77;13.35;;;;;;;1.82;58.74;99403.09;4984577;28;20478;-79
2021/12/28 06:27:17;;;;;;;31.58;13.77;;;;;;;1.75;58.82;99407.56;4963153;28;20146;-79
2021/12/28 06:29:42;;;;;;;29.27;14.25;;;;;;;1.79;59.07;99404.03;4973214;28;20089;-79
2021/12/28 06:32:08;;;;;;;29.88;13.63;;;;;;;1.96;58.52;99406.16;4990154;28;20042;-79
2021/12/28 06:34:33;;;;;;;28.48;15.18;;;;;;;1.87;58.59;99404.69;4985464;28;20030;-78
2021/12/28 06:36:59;;;;;;;32.03;13.95;;;;;;;2.03;58.08;99404.25;4967328;28;20417;-78
2021/12/28 06:39:25;;;;;;;29.42;13.38;;;;;;;2.08;58.05;99402.38;4987554;28;20030;-79
2021/12/28 06:41:50;;;;;;;34.53;13.55;;;;;;;2.08;57.49;99400.63;4989016;28;20045;-79
2021/12/28 06:44:16;;;;;;;33.05;14.95;;;;;;;1.85;59.13;99403.88;4977435;28;20049;-79
2021/12/28 06:46:42;;;;;;;30.17;15.18;;;;;;;1.85;58.60;99403.88;4990743;28;20045;-78
2021/12/28 06:49:07;;;;;;;33.95;14.13;;;;;;;2.06;57.61;99404.16;4989033;28;20106;-79
2021/12/28 06:51:33;;;;;;;27.25;12.10;;;;;;;2.11;57.90;99416.03;4990612;28;20045;-80
2021/12/28 06:53:59;;;;;;;31.33;13.88;;;;;;;2.10;57.93;99418.66;4989016;28;20038;-78
2021/12/28 06:56:24;;;;;;;30.48;14.07;;;;;;;1.75;58.93;99417.88;4981660;28;20459;-79
2021/12/28 06:58:51;;;;;;;29.08;13.20;;;;;;;2.11;57.45;99416.03;4975095;28;20111;-79
2021/12/28 07:01:17;;;;;;;37.95;14.07;;;;;;;1.81;59.02;99415.13;4990161;28;20125;-79
2021/12/28 07:03:42;;;;;;;41.65;14.20;;;;;;;1.96;58.26;99413.88;4990266;28;20560;-79
2021/12/28 07:06:08;;;;;;;34.03;14.52;;;;;;;2.09;58.32;99411.81;4988999;28;20109;-79
2021/12/28 07:08:35;;;;;;;29.50;14.02;;;;;;;2.19;57.97;99415.81;4984769;28;20042;-78
2021/12/28 07:11:01;;;;;;;29.38;13.13;;;;;;;2.18;57.83;99411.56;4972790;28;20398;-79
2021/12/28 07:13:27;;;;;;;26.02;14.43;;;;;;;2.25;57.88;99413.06;4957225;28;20054;-78
2021/12/28 07:15:52;;;;;;;30.25;13.20;;;;;;;2.25;57.79;99405.31;4975019;28;20038;-79
2021/12/28 07:18:18;;;;;;;31.65;13.98;;;;;;;2.20;57.52;99406.34;4991464;28;20045;-79
2021/12/28 07:20:44;;;;;;;30.13;13.23;;;;;;;2.18;58.01;99403.81;4975453;28;20042;-79
2021/12/28 07:23:09;;;;;;;30.55;14.85;;;;;;;2.18;57.62;99401.25;4973598;28;20038;-79
2021/12/28 07:25:35;;;;;;;43.80;13.65;;;;;;;2.04;58.50;99398.19;4976378;28;20034;-79
2021/12/28 07:28:01;;;;;;;30.65;13.73;;;;;;;1.92;58.66;99389.91;4989775;28;20873;-79
2021/12/28 07:30:27;;;;;;;33.13;12.80;;;;;;;2.02;58.27;99385.38;4974811;28;20053;-79
2021/12/28 07:32:53;;;;;;;41.55;13.23;;;;;;;1.94;58.13;99377.84;4973300;28;20471;-79
2021/12/28 07:35:19;;;;;;;27.10;13.27;;;;;;;2.14;57.73;99379.00;4978234;28;20508;-78
2021/12/28 07:37:44;;;;;;;43.20;14.80;;;;;;;2.13;57.43;99374.72;4998780;28;20080;-79
2021/12/28 07:40:10;;;;;;;33.67;13.05;;;;;;;2.12;57.56;99380.78;4968994;28;20030;-79
2021/12/28 07:42:36;;;;;;;42.63;13.82;;;;;;;1.91;58.02;99377.94;4979636;28;20034;-78
2021/12/28 07:45:09;;;;;;;40.83;13.70;;;;;;;1.93;58.54;99377.91;4983214;28;20042;-78
2021/12/28 07:47:36;;;;;;;29.48;13.10;;;;;;;1.76;58.53;99372.38;4983026;28;20563;-77
2021/12/28 07:50:02;;;;;;;30.60;13.02;;;;;;;1.92;58.12;99369.31;4983099;28;20038;-78
2021/12/28 07:52:28;;;;;;;30.38;13.43;;;;;;;1.91;58.08;99367.63;4968112;28;20124;-77
2021/12/28 07:54:54;;;;;;;29.67;12.45;;;;;;;1.93;58.23;99371.00;4982047;28;20054;-80
2021/12/28 07:57:19;;;;;;;29.27;13.20;;;;;;;1.93;57.93;99359.88;4961991;28;20064;-78
2021/12/28 07:59:45;;;;;;;29.35;13.32;;;;;;;2.03;58.08;99361.28;4982276;28;20205;-79
2021/12/28 08:02:11;;;;;;;25.80;13.38;;;;;;;1.96;58.25;99354.63;4983599;28;20046;-78
2021/12/28 08:04:36;;;;;;;26.42;12.73;;;;;;;1.89;58.46;99353.94;4984488;28;20479;-78
2021/12/28 08:07:02;;;;;;;31.17;13.45;;;;;;;1.77;58.58;99351.69;4983116;28;20058;-78
2021/12/28 08:09:27;;;;;;;30.63;12.85;;;;;;;1.73;58.52;99360.44;4972461;28;20034;-78
2021/12/28 08:11:53;;;;;;;37.97;12.52;;;;;;;1.67;58.75;99347.72;4966514;28;20064;-77
2021/12/28 08:14:18;;;;;;;37.58;13.52;;;;;;;1.68;58.24;99333.94;4984311;28;20050;-77
2021/12/28 08:16:45;;;;;;;31.25;13.60;;;;;;;1.75;58.26;99347.47;4979226;28;20026;-78
2021/12/28 08:19:10;;;;;;;26.67;13.27;;;;;;;1.59;58.79;99347.06;4987660;28;20045;-80
2021/12/28 08:21:36;;;;;;;32.65;12.45;;;;;;;1.60;58.72;99347.03;4968512;28;20694;-78
2021/12/28 08:24:03;;;;;;;33.53;11.52;;;;;;;1.43;59.32;99339.75;5003388;28;20042;-77
2021/12/28 08:26:29;;;;;;;33.28;12.32;;;;;;;1.55;58.58;99332.56;5006853;28;20030;-78
2021/12/28 08:28:54;;;;;;;21.63;11.82;;;;;;;1.47;58.93;99330.22;4996403;28;20042;-78
2021/12/28 08:31:20;;;;;;;31.05;13.27;;;;;;;1.37;59.22;99334.72;4976413;28;20084;-78
2021/12/28 08:33:46;;;;;;;22.92;10.90;;;;;;;1.34;59.13;99342.53;4991953;28;20049;-77
2021/12/28 08:36:11;;;;;;;29.05;12.73;;;;;;;1.49;59.16;99329.28;4989314;28;20042;-77
2021/12/28 08:38:39;;;;;;;24.95;11.10;;;;;;;1.52;59.03;99338.66;4992445;28;20042;-78
2021/12/28 08:41:05;;;;;;;24.05;11.82;;;;;;;1.43;59.17;99329.44;4989731;28;20477;-78
2021/12/28 08:43:32;;;;;;;27.33;11.65;;;;;;;1.45;59.08;99327.69;4991236;28;20172;-78
2021/12/28 08:45:57;;;;;;;23.65;12.45;;;;;;;1.45;59.61;99330.25;4990380;28;20065;-78
2021/12/28 08:48:23;;;;;;;21.77;10.65;;;;;;;1.59;59.15;99326.47;4975346;28;20046;-78
2021/12/28 08:50:49;;;;;;;29.80;13.02;;;;;;;1.83;58.55;99320.63;4976908;28;20030;-78
2021/12/28 08:53:15;;;;;;;33.10;11.70;;;;;;;1.85;58.40;99325.75;4991525;28;20046;-77
2021/12/28 08:55:42;;;;;;;21.00;11.10;;;;;;;1.90;58.21;99324.69;4991287;28;20516;-77
2021/12/28 08:58:07;;;;;;;22.90;11.30;;;;;;;1.84;58.64;99324.03;4986928;28;20074;-79
2021/12/28 09:00:36;;;;;;;27.08;13.82;;;;;;;1.88;58.61;99321.31;4985603;28;20523;-79
2021/12/28 09:03:02;;;;;;;24.20;10.80;;;;;;;2.03;58.30;99303.75;4979122;28;20164;-78
2021/12/28 09:05:30;;;;;;;21.80;11.20;;;;;;;2.22;57.99;99309.16;4986761;28;20460;-78
2021/12/28 09:07:57;;;;;;;20.63;11.18;;;;;;;1.96;58.26;99307.41;4984897;28;20061;-78
2021/12/28 09:10:25;;;;;;;24.48;11.40;;;;;;;2.20;57.61;99301.50;4988967;28;20044;-79
2021/12/28 09:12:55;;;;;;;19.88;9.95;;;;;;;2.10;58.03;99310.41;4972898;28;20052;-78
2021/12/28 09:15:22;;;;;;;16.73;9.90;;;;;;;2.34;57.35;99308.81;4969224;28;20517;-78
2021/12/28 09:17:49;;;;;;;19.17;10.48;;;;;;;2.35;57.29;99301.03;5002461;28;20608;-78
2021/12/28 09:20:18;;;;;;;16.17;8.98;;;;;;;2.22;57.50;99299.72;4987354;28;20145;-77
2021/12/28 09:22:44;;;;;;;22.60;11.32;;;;;;;2.18;57.89;99303.28;4981306;28;20112;-77
2021/12/28 09:25:10;;;;;;;19.50;9.10;;;;;;;2.38;57.49;99299.22;4983005;28;20038;-77
2021/12/28 09:27:35;;;;;;;22.40;10.60;;;;;;;2.61;57.22;99301.94;4982678;28;20129;-77
2021/12/28 09:30:02;;;;;;;20.27;10.82;;;;;;;2.60;57.30;99302.84;4986642;28;20125;-79
2021/12/28 09:32:27;;;;;;;17.17;9.52;;;;;;;2.74;57.11;99300.66;4971164;28;20045;-77
2021/12/28 09:34:55;;;;;;;21.70;10.20;;;;;;;2.69;56.92;99299.97;4981020;28;20039;-77
2021/12/28 09:37:20;;;;;;;18.58;9.10;;;;;;;2.68;57.27;99292.25;4967968;28;20038;-78
2021/12/28 09:39:47;;;;;;;16.67;9.48;;;;;;;2.68;56.90;99295.69;4964250;28;20379;-77
2021/12/28 09:42:13;;;;;;;16.45;9.18;;;;;;;2.83;56.85;99301.25;4978866;28;20046;-78
2021/12/28 09:44:38;;;;;;;20.17;9.77;;;;;;;2.86;56.61;99291.66;4961419;28;20038;-77
2021/12/28 09:47:05;;;;;;;18.88;10.00;;;;;;;2.73;56.80;99293.81;4987205;28;20041;-78
2021/12/28 09:49:32;;;;;;;26.40;10.23;;;;;;;2.86;56.70;99290.81;4977002;28;20030;-80
2021/12/28 09:52:00;;;;;;;20.20;9.35;;;;;;;2.85;57.15;99286.56;4979410;28;20075;-77
2021/12/28 09:54:27;;;;;;;20.48;9.40;;;;;;;2.98;57.43;99287.84;4984050;28;20035;-78
2021/12/28 09:56:55;;;;;;;20.02;8.93;;;;;;;3.07;56.91;99292.69;5005383;28;20042;-78
2021/12/28 09:59:22;;;;;;;20.85;9.07;;;;;;;3.36;56.86;99288.28;4995605;28;20563;-77
2021/12/28 10:01:48;;;;;;;19.08;9.77;;;;;;;3.87;56.16;99276.91;4983853;28;20061;-77
2021/12/28 10:04:14;;;;;;;21.67;9.75;;;;;;;4.02;55.43;99281.50;4992612;28;20022;-78
2021/12/28 10:06:42;;;;;;;21.90;8.73;;;;;;;3.78;54.90;99269.50;4979605;28;20041;-78
2021/12/28 10:09:14;;;;;;;16.60;8.20;;;;;;;3.55;55.54;99271.19;4984422;28;20256;-79
2021/12/28 10:11:42;;;;;;;;;;;;;;;3.29;56.69;99263.53;4962828;28;20513;-78
2021/12/28 10:14:14;;;;;;;15.43;7.78;;;;;;;3.18;56.53;99257.00;4979493;28;19977;-78
2021/12/28 10:16:47;;;;;;;15.32;7.65;;;;;;;3.16;56.12;99257.97;4986418;28;20034;-79
2021/12/28 10:19:40;;;;;;;22.05;8.20;;;;;;;3.19;56.10;99263.84;4998522;28;20034;-80
2021/12/28 10:22:23;;;;;;;;;;;;;;;3.06;56.63;99265.16;4981226;28;20042;-79
2021/12/28 10:24:52;;;;;;;17.30;8.00;;;;;;;3.45;55.65;99253.50;4986615;28;19949;-79
2021/12/28 10:27:20;;;;;;;16.60;8.82;;;;;;;3.29;56.14;99248.91;4985472;28;20042;-79
2021/12/28 10:29:46;;;;;;;15.43;8.70;;;;;;;3.39;56.00;99236.50;4985534;28;20025;-79
2021/12/28 10:32:26;;;;;;;15.73;8.13;;;;;;;3.63;55.65;99236.47;4987812;28;20057;-79
2021/12/28 10:35:03;;;;;;;15.93;8.00;;;;;;;3.76;55.77;99229.94;4993160;28;20044;-79
2021/12/28 10:37:32;;;;;;;21.40;8.30;;;;;;;4.14;55.35;99227.63;4977717;28;20080;-79
2021/12/28 10:40:00;;;;;;;18.02;7.47;;;;;;;4.50;54.82;99227.03;4992526;28;20509;-79
2021/12/28 10:42:52;;;;;;;18.38;8.73;;;;;;;4.77;53.90;99227.66;4970322;28;20109;-79
2021/12/28 10:45:25;;;;;;;15.90;7.00;;;;;;;4.38;54.60;99223.22;4972151;28;20128;-79
2021/12/28 10:47:54;;;;;;;13.55;6.30;;;;;;;4.42;54.52;99222.19;4988688;28;20138;-79
2021/12/28 10:50:37;;;;;;;10.35;5.95;;;;;;;4.21;55.18;99221.34;4987610;28;20065;-79
2021/12/28 10:53:12;;;;;;;16.27;5.85;;;;;;;4.19;55.35;99215.38;4974383;28;20113;-79
2021/12/28 10:55:43;;;;;;;14.80;7.03;;;;;;;4.40;55.26;99213.66;4990987;28;20030;-79
2021/12/28 10:58:11;;;;;;;14.80;6.80;;;;;;;4.43;55.02;99204.03;5007554;28;20042;-80
2021/12/28 11:00:43;;;;;;;11.38;5.57;;;;;;;4.57;54.76;99198.28;4991946;28;20034;-79
2021/12/28 11:03:17;;;;;;;18.58;5.80;;;;;;;4.54;55.12;99192.38;4976751;28;20088;-79
2021/12/28 11:05:46;;;;;;;14.80;7.28;;;;;;;4.65;54.88;99187.59;4974661;28;20101;-79
2021/12/28 11:08:12;;;;;;;11.25;5.70;;;;;;;4.60;54.80;99181.78;4985626;28;20089;-79
2021/12/28 11:10:52;;;;;;;10.95;4.75;;;;;;;4.70;54.80;99180.50;4990854;28;20573;-79
2021/12/28 11:13:21;;;;;;;9.02;4.65;;;;;;;4.86;54.38;99172.06;5006253;28;20041;-80
2021/12/28 11:15:47;;;;;;;13.82;6.22;;;;;;;4.78;54.71;99165.47;4989696;28;20129;-80
2021/12/28 11:18:17;;;;;;;11.73;6.53;;;;;;;4.88;54.12;99165.94;4973873;28;20552;-79
2021/12/28 11:20:46;;;;;;;14.13;5.68;;;;;;;4.94;54.28;99147.53;4998724;28;20077;-81
2021/12/28 11:23:15;;;;;;;17.80;5.53;;;;;;;4.96;54.04;99148.31;4987166;28;20557;-81
2021/12/28 11:25:40;;;;;;;9.95;5.40;;;;;;;5.15;53.46;99148.34;4980210;28;20340;-79